sensor_id;sensor_type;location;lat;lon;timestamp;P1;durP1;ratioP1;P2;durP2;ratioP2
5418;SDS011;2732;52.092;11.556;2023-02-01T00:02:45;12.43;;;2.50;;
5418;SDS011;2732;52.092;11.556;2023-02-01T00:07:46;5.80;;;1.90;;
5418;SDS011;2732;52.092;11.556;2023-02-01T00:12:48;16.53;;;2.57;;
5418;SDS011;2732;52.092;11.556;2023-02-01T00:17:52;12.27;;;2.67;;
5418;SDS011;2732;52.092;11.556;2023-02-01T00:22:54;12.77;;;2.53;;
5418;SDS011;2732;52.092;11.556;2023-02-01T00:27:55;14.37;;;2.47;;
5418;SDS011;2732;52.092;11.556;2023-02-01T00:32:57;15.27;;;2.17;;
5418;SDS011;2732;52.092;11.556;2023-02-01T00:37:57;9.03;;;1.53;;
5418;SDS011;2732;52.092;11.556;2023-02-01T00:42:59;15.60;;;3.17;;
5418;SDS011;2732;52.092;11.556;2023-02-01T00:47:59;10.13;;;3.13;;
5418;SDS011;2732;52.092;11.556;2023-02-01T00:53:00;5.87;;;2.07;;
5418;SDS011;2732;52.092;11.556;2023-02-01T00:58:01;10.63;;;3.00;;
5418;SDS011;2732;52.092;11.556;2023-02-01T01:03:01;29.77;;;3.40;;
5418;SDS011;2732;52.092;11.556;2023-02-01T01:08:02;17.77;;;2.27;;
5418;SDS011;2732;52.092;11.556;2023-02-01T01:13:03;6.80;;;1.40;;
5418;SDS011;2732;52.092;11.556;2023-02-01T01:18:03;10.40;;;2.50;;
5418;SDS011;2732;52.092;11.556;2023-02-01T01:23:05;15.97;;;3.03;;
5418;SDS011;2732;52.092;11.556;2023-02-01T01:28:07;13.07;;;2.23;;
5418;SDS011;2732;52.092;11.556;2023-02-01T01:33:08;16.50;;;3.30;;
5418;SDS011;2732;52.092;11.556;2023-02-01T01:38:09;14.57;;;3.40;;
5418;SDS011;2732;52.092;11.556;2023-02-01T01:43:15;12.37;;;2.97;;
5418;SDS011;2732;52.092;11.556;2023-02-01T01:48:26;14.13;;;2.30;;
5418;SDS011;2732;52.092;11.556;2023-02-01T01:54:03;14.53;;;2.67;;
5418;SDS011;2732;52.092;11.556;2023-02-01T01:59:01;13.23;;;2.40;;
5418;SDS011;2732;52.092;11.556;2023-02-01T02:04:02;5.70;;;1.63;;
5418;SDS011;2732;52.092;11.556;2023-02-01T02:09:03;14.53;;;2.90;;
5418;SDS011;2732;52.092;11.556;2023-02-01T02:14:04;11.77;;;2.13;;
5418;SDS011;2732;52.092;11.556;2023-02-01T02:24:50;15.77;;;2.77;;
5418;SDS011;2732;52.092;11.556;2023-02-01T02:47:28;19.40;;;3.37;;
5418;SDS011;2732;52.092;11.556;2023-02-01T02:52:37;17.30;;;3.83;;
5418;SDS011;2732;52.092;11.556;2023-02-01T02:58:08;26.53;;;3.50;;
5418;SDS011;2732;52.092;11.556;2023-02-01T03:03:31;12.40;;;2.07;;
5418;SDS011;2732;52.092;11.556;2023-02-01T03:08:50;9.37;;;3.03;;
5418;SDS011;2732;52.092;11.556;2023-02-01T03:13:57;17.27;;;3.00;;
5418;SDS011;2732;52.092;11.556;2023-02-01T03:19:03;15.60;;;3.20;;
5418;SDS011;2732;52.092;11.556;2023-02-01T03:24:21;12.07;;;2.60;;
5418;SDS011;2732;52.092;11.556;2023-02-01T03:29:36;13.30;;;2.63;;
5418;SDS011;2732;52.092;11.556;2023-02-01T03:34:46;16.07;;;2.93;;
5418;SDS011;2732;52.092;11.556;2023-02-01T03:39:48;19.00;;;2.73;;
5418;SDS011;2732;52.092;11.556;2023-02-01T03:45:01;20.50;;;3.13;;
5418;SDS011;2732;52.092;11.556;2023-02-01T03:50:26;13.53;;;2.70;;
5418;SDS011;2732;52.092;11.556;2023-02-01T03:55:28;21.60;;;3.03;;
5418;SDS011;2732;52.092;11.556;2023-02-01T04:00:30;17.90;;;3.20;;
5418;SDS011;2732;52.092;11.556;2023-02-01T04:05:31;15.00;;;2.60;;
5418;SDS011;2732;52.092;11.556;2023-02-01T04:10:32;16.00;;;2.67;;
5418;SDS011;2732;52.092;11.556;2023-02-01T04:15:32;17.33;;;2.40;;
5418;SDS011;2732;52.092;11.556;2023-02-01T04:20:34;6.53;;;1.43;;
5418;SDS011;2732;52.092;11.556;2023-02-01T04:25:35;18.87;;;2.90;;
5418;SDS011;2732;52.092;11.556;2023-02-01T04:30:35;9.90;;;2.80;;
5418;SDS011;2732;52.092;11.556;2023-02-01T04:35:36;15.33;;;3.70;;
5418;SDS011;2732;52.092;11.556;2023-02-01T04:40:36;27.87;;;3.40;;
5418;SDS011;2732;52.092;11.556;2023-02-01T04:45:37;20.57;;;4.50;;
5418;SDS011;2732;52.092;11.556;2023-02-01T04:50:38;17.63;;;2.67;;
5418;SDS011;2732;52.092;11.556;2023-02-01T04:55:38;12.30;;;3.57;;
5418;SDS011;2732;52.092;11.556;2023-02-01T05:00:39;19.83;;;3.40;;
5418;SDS011;2732;52.092;11.556;2023-02-01T05:05:39;18.53;;;2.17;;
5418;SDS011;2732;52.092;11.556;2023-02-01T05:10:40;13.73;;;3.27;;
5418;SDS011;2732;52.092;11.556;2023-02-01T05:15:41;13.40;;;3.00;;
5418;SDS011;2732;52.092;11.556;2023-02-01T05:20:41;13.67;;;2.80;;
5418;SDS011;2732;52.092;11.556;2023-02-01T05:25:42;26.13;;;2.70;;
5418;SDS011;2732;52.092;11.556;2023-02-01T05:30:42;16.37;;;3.23;;
5418;SDS011;2732;52.092;11.556;2023-02-01T05:35:43;19.63;;;2.60;;
5418;SDS011;2732;52.092;11.556;2023-02-01T05:40:43;27.30;;;3.03;;
5418;SDS011;2732;52.092;11.556;2023-02-01T05:45:51;13.97;;;2.73;;
5418;SDS011;2732;52.092;11.556;2023-02-01T05:50:52;9.27;;;2.57;;
5418;SDS011;2732;52.092;11.556;2023-02-01T05:55:52;23.03;;;4.47;;
5418;SDS011;2732;52.092;11.556;2023-02-01T06:00:53;15.73;;;2.73;;
5418;SDS011;2732;52.092;11.556;2023-02-01T06:05:54;19.10;;;3.00;;
5418;SDS011;2732;52.092;11.556;2023-02-01T06:10:58;24.33;;;3.10;;
5418;SDS011;2732;52.092;11.556;2023-02-01T06:16:08;14.63;;;3.33;;
5418;SDS011;2732;52.092;11.556;2023-02-01T06:21:08;10.10;;;3.10;;
5418;SDS011;2732;52.092;11.556;2023-02-01T06:26:09;15.47;;;3.63;;
5418;SDS011;2732;52.092;11.556;2023-02-01T06:31:10;10.50;;;2.90;;
5418;SDS011;2732;52.092;11.556;2023-02-01T06:36:11;8.13;;;2.77;;
5418;SDS011;2732;52.092;11.556;2023-02-01T06:41:12;16.07;;;3.40;;
5418;SDS011;2732;52.092;11.556;2023-02-01T06:46:13;23.23;;;5.23;;
5418;SDS011;2732;52.092;11.556;2023-02-01T06:51:18;12.13;;;2.50;;
5418;SDS011;2732;52.092;11.556;2023-02-01T06:56:21;16.40;;;3.00;;
5418;SDS011;2732;52.092;11.556;2023-02-01T07:01:22;9.80;;;2.57;;
5418;SDS011;2732;52.092;11.556;2023-02-01T07:06:22;7.93;;;2.00;;
5418;SDS011;2732;52.092;11.556;2023-02-01T07:11:23;18.00;;;5.00;;
5418;SDS011;2732;52.092;11.556;2023-02-01T07:16:24;8.13;;;2.20;;
5418;SDS011;2732;52.092;11.556;2023-02-01T07:21:24;8.60;;;2.47;;
5418;SDS011;2732;52.092;11.556;2023-02-01T07:26:27;8.80;;;2.10;;
5418;SDS011;2732;52.092;11.556;2023-02-01T07:31:28;16.70;;;2.80;;
5418;SDS011;2732;52.092;11.556;2023-02-01T07:36:29;11.67;;;2.43;;
5418;SDS011;2732;52.092;11.556;2023-02-01T07:41:29;14.53;;;1.77;;
5418;SDS011;2732;52.092;11.556;2023-02-01T07:46:30;10.03;;;2.30;;
5418;SDS011;2732;52.092;11.556;2023-02-01T07:51:31;13.70;;;2.70;;
5418;SDS011;2732;52.092;11.556;2023-02-01T07:56:31;7.93;;;2.57;;
5418;SDS011;2732;52.092;11.556;2023-02-01T08:01:32;13.70;;;3.77;;
5418;SDS011;2732;52.092;11.556;2023-02-01T08:06:33;4.23;;;2.10;;
5418;SDS011;2732;52.092;11.556;2023-02-01T08:11:34;17.70;;;2.17;;
5418;SDS011;2732;52.092;11.556;2023-02-01T08:16:37;13.77;;;3.10;;
5418;SDS011;2732;52.092;11.556;2023-02-01T08:21:39;13.73;;;2.73;;
5418;SDS011;2732;52.092;11.556;2023-02-01T08:26:39;10.67;;;2.23;;
5418;SDS011;2732;52.092;11.556;2023-02-01T08:31:40;3.27;;;1.83;;
5418;SDS011;2732;52.092;11.556;2023-02-01T08:36:41;8.10;;;2.30;;
5418;SDS011;2732;52.092;11.556;2023-02-01T08:41:42;18.60;;;2.20;;
5418;SDS011;2732;52.092;11.556;2023-02-01T08:47:02;6.00;;;2.20;;
5418;SDS011;2732;52.092;11.556;2023-02-01T08:52:03;10.90;;;2.47;;
5418;SDS011;2732;52.092;11.556;2023-02-01T08:57:04;15.73;;;3.10;;
5418;SDS011;2732;52.092;11.556;2023-02-01T09:02:05;8.00;;;2.00;;
5418;SDS011;2732;52.092;11.556;2023-02-01T09:07:06;13.67;;;2.90;;
5418;SDS011;2732;52.092;11.556;2023-02-01T09:12:10;6.87;;;3.00;;
5418;SDS011;2732;52.092;11.556;2023-02-01T09:17:11;4.53;;;1.70;;
5418;SDS011;2732;52.092;11.556;2023-02-01T09:22:14;5.30;;;1.60;;
5418;SDS011;2732;52.092;11.556;2023-02-01T09:27:16;4.83;;;1.37;;
5418;SDS011;2732;52.092;11.556;2023-02-01T09:32:16;2.53;;;0.90;;
5418;SDS011;2732;52.092;11.556;2023-02-01T09:37:17;4.57;;;1.30;;
5418;SDS011;2732;52.092;11.556;2023-02-01T09:42:21;7.23;;;1.83;;
5418;SDS011;2732;52.092;11.556;2023-02-01T09:47:49;6.07;;;2.30;;
5418;SDS011;2732;52.092;11.556;2023-02-01T09:53:02;11.30;;;1.97;;
5418;SDS011;2732;52.092;11.556;2023-02-01T09:58:23;3.67;;;1.43;;
5418;SDS011;2732;52.092;11.556;2023-02-01T10:03:41;14.03;;;2.40;;
5418;SDS011;2732;52.092;11.556;2023-02-01T10:09:02;3.60;;;1.30;;
5418;SDS011;2732;52.092;11.556;2023-02-01T10:14:26;6.90;;;1.30;;
5418;SDS011;2732;52.092;11.556;2023-02-01T10:20:01;11.63;;;2.10;;
5418;SDS011;2732;52.092;11.556;2023-02-01T10:25:26;7.97;;;2.60;;
5418;SDS011;2732;52.092;11.556;2023-02-01T10:30:44;10.03;;;2.13;;
5418;SDS011;2732;52.092;11.556;2023-02-01T10:35:47;9.80;;;3.20;;
5418;SDS011;2732;52.092;11.556;2023-02-01T10:41:11;12.80;;;2.47;;
5418;SDS011;2732;52.092;11.556;2023-02-01T10:46:15;13.20;;;2.60;;
5418;SDS011;2732;52.092;11.556;2023-02-01T10:51:26;12.97;;;1.90;;
5418;SDS011;2732;52.092;11.556;2023-02-01T10:57:00;11.20;;;2.40;;
5418;SDS011;2732;52.092;11.556;2023-02-01T11:02:02;10.87;;;2.37;;
5418;SDS011;2732;52.092;11.556;2023-02-01T11:07:23;5.90;;;1.20;;
5418;SDS011;2732;52.092;11.556;2023-02-01T11:12:35;7.37;;;2.20;;
5418;SDS011;2732;52.092;11.556;2023-02-01T11:17:42;7.80;;;1.87;;
5418;SDS011;2732;52.092;11.556;2023-02-01T11:22:45;10.90;;;1.83;;
5418;SDS011;2732;52.092;11.556;2023-02-01T11:27:49;10.70;;;2.73;;
5418;SDS011;2732;52.092;11.556;2023-02-01T11:32:52;13.23;;;2.67;;
5418;SDS011;2732;52.092;11.556;2023-02-01T11:37:59;9.37;;;2.07;;
5418;SDS011;2732;52.092;11.556;2023-02-01T11:43:08;8.30;;;1.40;;
5418;SDS011;2732;52.092;11.556;2023-02-01T11:48:32;8.50;;;2.03;;
5418;SDS011;2732;52.092;11.556;2023-02-01T11:53:39;6.87;;;1.90;;
5418;SDS011;2732;52.092;11.556;2023-02-01T12:05:05;7.87;;;1.60;;
5418;SDS011;2732;52.092;11.556;2023-02-01T12:21:39;11.20;;;2.13;;
5418;SDS011;2732;52.092;11.556;2023-02-01T12:38:06;12.20;;;2.20;;
5418;SDS011;2732;52.092;11.556;2023-02-01T12:43:48;8.63;;;2.10;;
5418;SDS011;2732;52.092;11.556;2023-02-01T12:54:24;10.83;;;1.93;;
5418;SDS011;2732;52.092;11.556;2023-02-01T12:59:54;13.07;;;2.20;;
5418;SDS011;2732;52.092;11.556;2023-02-01T13:05:19;6.90;;;1.90;;
5418;SDS011;2732;52.092;11.556;2023-02-01T13:10:35;13.97;;;2.20;;
5418;SDS011;2732;52.092;11.556;2023-02-01T13:15:43;10.43;;;1.47;;
5418;SDS011;2732;52.092;11.556;2023-02-01T13:26:21;10.53;;;2.20;;
5418;SDS011;2732;52.092;11.556;2023-02-01T13:31:40;9.97;;;1.97;;
5418;SDS011;2732;52.092;11.556;2023-02-01T13:42:49;9.37;;;2.43;;
5418;SDS011;2732;52.092;11.556;2023-02-01T13:47:55;14.03;;;2.73;;
5418;SDS011;2732;52.092;11.556;2023-02-01T13:53:00;7.57;;;2.60;;
5418;SDS011;2732;52.092;11.556;2023-02-01T13:58:18;5.23;;;1.40;;
5418;SDS011;2732;52.092;11.556;2023-02-01T14:03:45;4.23;;;1.60;;
5418;SDS011;2732;52.092;11.556;2023-02-01T14:09:09;12.43;;;2.20;;
5418;SDS011;2732;52.092;11.556;2023-02-01T14:19:34;12.10;;;2.97;;
5418;SDS011;2732;52.092;11.556;2023-02-01T14:24:36;8.83;;;2.30;;
5418;SDS011;2732;52.092;11.556;2023-02-01T14:29:37;8.60;;;2.57;;
5418;SDS011;2732;52.092;11.556;2023-02-01T14:44:54;4.10;;;1.37;;
5418;SDS011;2732;52.092;11.556;2023-02-01T14:50:30;1.27;;;1.17;;
5418;SDS011;2732;52.092;11.556;2023-02-01T15:11:26;1.70;;;0.60;;
5418;SDS011;2732;52.092;11.556;2023-02-01T15:16:28;2.03;;;0.70;;
5418;SDS011;2732;52.092;11.556;2023-02-01T15:21:28;1.93;;;0.87;;
5418;SDS011;2732;52.092;11.556;2023-02-01T15:26:30;2.40;;;0.50;;
5418;SDS011;2732;52.092;11.556;2023-02-01T15:31:33;2.63;;;0.97;;
5418;SDS011;2732;52.092;11.556;2023-02-01T15:36:41;0.40;;;0.30;;
5418;SDS011;2732;52.092;11.556;2023-02-01T15:41:42;0.40;;;0.40;;
5418;SDS011;2732;52.092;11.556;2023-02-01T15:46:49;1.13;;;0.43;;
5418;SDS011;2732;52.092;11.556;2023-02-01T15:51:50;1.70;;;0.50;;
5418;SDS011;2732;52.092;11.556;2023-02-01T15:56:52;1.27;;;0.40;;
5418;SDS011;2732;52.092;11.556;2023-02-01T16:01:55;0.50;;;0.50;;
5418;SDS011;2732;52.092;11.556;2023-02-01T16:07:00;1.47;;;0.57;;
5418;SDS011;2732;52.092;11.556;2023-02-01T16:12:17;3.20;;;0.50;;
5418;SDS011;2732;52.092;11.556;2023-02-01T16:17:44;1.20;;;0.63;;
5418;SDS011;2732;52.092;11.556;2023-02-01T16:22:45;4.03;;;1.20;;
5418;SDS011;2732;52.092;11.556;2023-02-01T16:27:46;3.83;;;0.83;;
5418;SDS011;2732;52.092;11.556;2023-02-01T16:32:46;4.03;;;0.70;;
5418;SDS011;2732;52.092;11.556;2023-02-01T16:37:47;1.40;;;0.90;;
5418;SDS011;2732;52.092;11.556;2023-02-01T16:42:49;7.07;;;1.00;;
5418;SDS011;2732;52.092;11.556;2023-02-01T16:47:53;5.97;;;1.13;;
5418;SDS011;2732;52.092;11.556;2023-02-01T16:52:55;6.63;;;1.10;;
5418;SDS011;2732;52.092;11.556;2023-02-01T16:57:56;2.80;;;0.90;;
5418;SDS011;2732;52.092;11.556;2023-02-01T17:02:56;4.33;;;1.10;;
5418;SDS011;2732;52.092;11.556;2023-02-01T17:07:57;5.90;;;1.10;;
5418;SDS011;2732;52.092;11.556;2023-02-01T17:13:03;12.60;;;1.80;;
5418;SDS011;2732;52.092;11.556;2023-02-01T17:18:05;5.90;;;1.53;;
5418;SDS011;2732;52.092;11.556;2023-02-01T17:23:09;5.20;;;1.23;;
5418;SDS011;2732;52.092;11.556;2023-02-01T17:28:10;8.43;;;1.20;;
5418;SDS011;2732;52.092;11.556;2023-02-01T17:33:14;7.13;;;1.53;;
5418;SDS011;2732;52.092;11.556;2023-02-01T17:38:30;2.80;;;1.20;;
5418;SDS011;2732;52.092;11.556;2023-02-01T17:43:31;10.33;;;1.87;;
5418;SDS011;2732;52.092;11.556;2023-02-01T17:48:31;5.30;;;1.07;;
5418;SDS011;2732;52.092;11.556;2023-02-01T17:53:32;10.43;;;1.90;;
5418;SDS011;2732;52.092;11.556;2023-02-01T17:58:34;8.93;;;1.70;;
5418;SDS011;2732;52.092;11.556;2023-02-01T18:03:35;8.83;;;1.47;;
5418;SDS011;2732;52.092;11.556;2023-02-01T18:08:35;10.33;;;2.00;;
5418;SDS011;2732;52.092;11.556;2023-02-01T18:13:36;9.67;;;2.50;;
5418;SDS011;2732;52.092;11.556;2023-02-01T18:18:36;8.10;;;1.73;;
5418;SDS011;2732;52.092;11.556;2023-02-01T18:23:37;1.67;;;0.73;;
5418;SDS011;2732;52.092;11.556;2023-02-01T18:28:38;3.07;;;1.30;;
5418;SDS011;2732;52.092;11.556;2023-02-01T18:33:39;3.50;;;1.10;;
5418;SDS011;2732;52.092;11.556;2023-02-01T18:38:40;3.73;;;1.17;;
5418;SDS011;2732;52.092;11.556;2023-02-01T18:43:41;1.33;;;0.93;;
5418;SDS011;2732;52.092;11.556;2023-02-01T18:48:42;0.83;;;0.47;;
5418;SDS011;2732;52.092;11.556;2023-02-01T18:53:43;5.03;;;1.00;;
5418;SDS011;2732;52.092;11.556;2023-02-01T18:58:45;3.77;;;0.90;;
5418;SDS011;2732;52.092;11.556;2023-02-01T19:03:46;6.77;;;2.30;;
5418;SDS011;2732;52.092;11.556;2023-02-01T19:08:48;3.27;;;1.40;;
5418;SDS011;2732;52.092;11.556;2023-02-01T19:13:50;4.17;;;1.00;;
5418;SDS011;2732;52.092;11.556;2023-02-01T19:18:51;7.20;;;1.63;;
5418;SDS011;2732;52.092;11.556;2023-02-01T19:23:52;10.33;;;1.17;;
5418;SDS011;2732;52.092;11.556;2023-02-01T19:28:56;3.73;;;0.93;;
5418;SDS011;2732;52.092;11.556;2023-02-01T19:33:57;9.03;;;1.20;;
5418;SDS011;2732;52.092;11.556;2023-02-01T19:38:58;7.10;;;0.97;;
5418;SDS011;2732;52.092;11.556;2023-02-01T19:43:58;11.17;;;1.47;;
5418;SDS011;2732;52.092;11.556;2023-02-01T19:48:59;3.23;;;0.90;;
5418;SDS011;2732;52.092;11.556;2023-02-01T19:53:59;3.37;;;1.30;;
5418;SDS011;2732;52.092;11.556;2023-02-01T19:59:00;3.90;;;1.03;;
5418;SDS011;2732;52.092;11.556;2023-02-01T20:04:01;3.13;;;1.30;;
5418;SDS011;2732;52.092;11.556;2023-02-01T20:09:02;7.47;;;1.53;;
5418;SDS011;2732;52.092;11.556;2023-02-01T20:14:03;5.37;;;1.30;;
5418;SDS011;2732;52.092;11.556;2023-02-01T20:19:04;2.93;;;0.97;;
5418;SDS011;2732;52.092;11.556;2023-02-01T20:24:05;2.80;;;0.70;;
5418;SDS011;2732;52.092;11.556;2023-02-01T20:29:06;4.33;;;0.80;;
5418;SDS011;2732;52.092;11.556;2023-02-01T20:34:08;1.43;;;1.00;;
5418;SDS011;2732;52.092;11.556;2023-02-01T20:39:09;5.40;;;1.10;;
5418;SDS011;2732;52.092;11.556;2023-02-01T20:44:10;4.40;;;1.07;;
5418;SDS011;2732;52.092;11.556;2023-02-01T20:49:10;3.77;;;1.53;;
5418;SDS011;2732;52.092;11.556;2023-02-01T20:54:11;7.40;;;1.27;;
5418;SDS011;2732;52.092;11.556;2023-02-01T20:59:11;5.40;;;1.67;;
5418;SDS011;2732;52.092;11.556;2023-02-01T21:04:13;4.90;;;1.33;;
5418;SDS011;2732;52.092;11.556;2023-02-01T21:09:14;10.03;;;2.00;;
5418;SDS011;2732;52.092;11.556;2023-02-01T21:14:15;13.13;;;2.50;;
5418;SDS011;2732;52.092;11.556;2023-02-01T21:19:16;10.00;;;2.30;;
5418;SDS011;2732;52.092;11.556;2023-02-01T21:24:17;8.90;;;2.00;;
5418;SDS011;2732;52.092;11.556;2023-02-01T21:29:18;18.90;;;2.47;;
5418;SDS011;2732;52.092;11.556;2023-02-01T21:34:19;8.97;;;1.90;;
5418;SDS011;2732;52.092;11.556;2023-02-01T21:39:19;9.17;;;2.00;;
5418;SDS011;2732;52.092;11.556;2023-02-01T21:44:23;15.33;;;2.47;;
5418;SDS011;2732;52.092;11.556;2023-02-01T21:49:24;10.10;;;2.47;;
5418;SDS011;2732;52.092;11.556;2023-02-01T21:54:26;6.67;;;1.87;;
5418;SDS011;2732;52.092;11.556;2023-02-01T21:59:26;13.47;;;2.30;;
5418;SDS011;2732;52.092;11.556;2023-02-01T22:04:27;7.50;;;2.10;;
5418;SDS011;2732;52.092;11.556;2023-02-01T22:09:28;16.07;;;2.47;;
5418;SDS011;2732;52.092;11.556;2023-02-01T22:14:28;10.83;;;1.80;;
5418;SDS011;2732;52.092;11.556;2023-02-01T22:19:29;18.33;;;2.60;;
5418;SDS011;2732;52.092;11.556;2023-02-01T22:24:30;12.90;;;2.10;;
5418;SDS011;2732;52.092;11.556;2023-02-01T22:29:30;12.30;;;2.20;;
5418;SDS011;2732;52.092;11.556;2023-02-01T22:34:31;10.30;;;1.50;;
5418;SDS011;2732;52.092;11.556;2023-02-01T22:39:32;2.10;;;1.53;;
5418;SDS011;2732;52.092;11.556;2023-02-01T22:44:32;13.80;;;2.40;;
5418;SDS011;2732;52.092;11.556;2023-02-01T22:49:33;18.87;;;1.53;;
5418;SDS011;2732;52.092;11.556;2023-02-01T22:54:34;16.40;;;2.63;;
5418;SDS011;2732;52.092;11.556;2023-02-01T22:59:34;8.90;;;2.40;;
5418;SDS011;2732;52.092;11.556;2023-02-01T23:04:35;14.23;;;2.60;;
5418;SDS011;2732;52.092;11.556;2023-02-01T23:09:36;21.23;;;2.37;;
5418;SDS011;2732;52.092;11.556;2023-02-01T23:14:36;6.67;;;1.90;;
5418;SDS011;2732;52.092;11.556;2023-02-01T23:19:57;13.87;;;2.13;;
5418;SDS011;2732;52.092;11.556;2023-02-01T23:24:58;7.90;;;2.63;;
5418;SDS011;2732;52.092;11.556;2023-02-01T23:29:59;13.93;;;2.40;;
5418;SDS011;2732;52.092;11.556;2023-02-01T23:34:59;11.73;;;1.80;;
5418;SDS011;2732;52.092;11.556;2023-02-01T23:40:00;10.30;;;1.77;;
5418;SDS011;2732;52.092;11.556;2023-02-01T23:45:02;13.07;;;2.77;;
5418;SDS011;2732;52.092;11.556;2023-02-01T23:50:03;19.77;;;3.90;;
5418;SDS011;2732;52.092;11.556;2023-02-01T23:55:04;7.70;;;1.60;;
